createdAt,value
2022-10-30T00:01:41.058Z,980.69
2022-10-30T00:07:12.439Z,980.53
2022-10-30T00:12:44.277Z,980.53
2022-10-30T00:18:16.012Z,980.58
2022-10-30T00:23:47.595Z,980.71
2022-10-30T00:29:19.487Z,980.62
2022-10-30T00:34:51.134Z,980.69
2022-10-30T00:40:22.823Z,980.62
2022-10-30T00:45:54.627Z,980.61
2022-10-30T00:51:26.272Z,980.63
2022-10-30T00:56:57.924Z,980.76
2022-10-30T01:02:36.279Z,980.71
2022-10-30T01:08:07.842Z,980.63
2022-10-30T01:13:39.491Z,980.8
2022-10-30T01:19:11.274Z,980.71
2022-10-30T01:24:43.381Z,980.27
2022-10-30T01:30:14.835Z,980.57
2022-10-30T01:35:46.648Z,980.77
2022-10-30T01:41:18.150Z,980.73
2022-10-30T01:46:49.804Z,980.63
2022-10-30T01:52:21.574Z,980.64
2022-10-30T01:57:53.242Z,980.64
2022-10-30T02:03:30.271Z,980.7
2022-10-30T02:09:01.318Z,980.72
2022-10-30T02:14:32.790Z,980.87
2022-10-30T02:20:04.650Z,980.78
2022-10-30T02:25:36.238Z,981.02
2022-10-30T02:31:07.979Z,980.89
2022-10-30T02:36:39.649Z,980.58
2022-10-30T02:42:11.707Z,980.58
2022-10-30T02:47:43.086Z,980.6
2022-10-30T02:53:14.958Z,980.6
2022-10-30T02:58:46.639Z,980.53
2022-10-30T03:04:24.935Z,980.6
2022-10-30T03:09:56.419Z,980.52
2022-10-30T03:15:28.138Z,980.48
2022-10-30T03:20:59.909Z,980.42
2022-10-30T03:26:31.534Z,980.49
2022-10-30T03:32:03.308Z,980.52
2022-10-30T03:37:35.205Z,980.31
2022-10-30T03:43:06.851Z,980.32
2022-10-30T03:48:38.560Z,980.25
2022-10-30T03:54:10.199Z,980.2
2022-10-30T03:59:41.963Z,980.22
2022-10-30T04:05:18.224Z,980.45
2022-10-30T04:10:49.992Z,980.47
2022-10-30T04:16:21.824Z,980.6
2022-10-30T04:21:53.195Z,980.63
2022-10-30T04:27:24.903Z,980.36
2022-10-30T04:32:58.538Z,980.46
2022-10-30T04:38:28.404Z,980.6
2022-10-30T04:44:00.087Z,980.78
2022-10-30T04:49:31.975Z,980.6
2022-10-30T04:55:03.389Z,980.66
2022-10-30T05:00:35.092Z,980.76
2022-10-30T05:06:15.300Z,980.91
2022-10-30T05:11:46.984Z,980.77
2022-10-30T05:17:19.182Z,980.87
2022-10-30T05:22:50.452Z,980.75
2022-10-30T05:28:22.175Z,980.67
2022-10-30T05:33:53.968Z,980.6
2022-10-30T05:39:25.563Z,980.51
2022-10-30T05:45:03.035Z,980.53
2022-10-30T05:50:29.067Z,980.46
2022-10-30T05:56:00.886Z,980.49
2022-10-30T06:01:32.788Z,980.61
2022-10-30T06:07:08.630Z,980.7
2022-10-30T06:12:40.329Z,980.49
2022-10-30T06:18:12.175Z,980.92
2022-10-30T06:23:43.796Z,980.85
2022-10-30T06:29:15.517Z,980.84
2022-10-30T06:34:47.239Z,981.12
2022-10-30T06:40:18.986Z,980.95
2022-10-30T06:45:51.596Z,980.92
2022-10-30T06:51:22.740Z,981.1
2022-10-30T06:56:54.148Z,981.28
2022-10-30T07:02:26.240Z,981.97
2022-10-30T07:08:01.992Z,981.94
2022-10-30T07:13:33.734Z,981.99
2022-10-30T07:19:05.783Z,982.09
2022-10-30T07:24:37.083Z,982.33
2022-10-30T07:30:08.919Z,982.27
2022-10-30T07:35:40.637Z,982.56
2022-10-30T07:41:12.347Z,982.38
2022-10-30T07:46:44.208Z,982.83
2022-10-30T07:52:18.195Z,982.65
2022-10-30T07:57:47.818Z,982.37
2022-10-30T08:03:19.334Z,983.22
2022-10-30T08:08:55.363Z,983.13
2022-10-30T08:14:27.163Z,982.78
2022-10-30T08:19:58.839Z,983.45
2022-10-30T08:25:30.501Z,983.62
2022-10-30T08:31:02.357Z,983.66
2022-10-30T08:36:34.125Z,983.82
2022-10-30T08:42:05.718Z,983.92
2022-10-30T08:47:37.906Z,984.34
2022-10-30T08:53:09.299Z,983.34
2022-10-30T08:58:40.821Z,984.49
2022-10-30T09:04:12.724Z,984.48
2022-10-30T09:09:50.951Z,984.72
2022-10-30T09:15:22.602Z,984.07
2022-10-30T09:20:54.235Z,984.39
2022-10-30T09:26:25.989Z,984.57
2022-10-30T09:31:57.667Z,984.36
2022-10-30T09:37:29.448Z,984.55
2022-10-30T09:43:01.337Z,984.55
2022-10-30T09:48:32.817Z,984.32
2022-10-30T09:54:04.640Z,984.52
2022-10-30T09:59:36.316Z,984.78
2022-10-30T10:05:07.971Z,984.67
2022-10-30T10:10:44.118Z,984.64
2022-10-30T10:16:15.817Z,984.62
2022-10-30T10:21:47.641Z,984.56
2022-10-30T10:27:19.533Z,984.54
2022-10-30T10:32:51.010Z,984.44
2022-10-30T10:38:22.697Z,984.77
2022-10-30T10:43:54.483Z,984.35
2022-10-30T10:49:26.215Z,984.3
2022-10-30T10:54:57.914Z,984.12
2022-10-30T11:00:29.794Z,984.19
2022-10-30T11:06:01.629Z,984.02
2022-10-30T11:11:37.539Z,983.96
2022-10-30T11:17:09.277Z,983.87
2022-10-30T11:22:40.859Z,983.85
2022-10-30T11:28:12.634Z,983.68
2022-10-30T11:33:44.433Z,983.34
2022-10-30T11:39:16.086Z,983.75
2022-10-30T11:44:48.034Z,983.42
2022-10-30T11:50:19.790Z,983.23
2022-10-30T11:55:51.259Z,982.99
2022-10-30T12:01:23.229Z,982.89
2022-10-30T12:06:54.762Z,982.9
2022-10-30T12:12:32.812Z,983.01
2022-10-30T12:18:04.627Z,982.44
2022-10-30T12:23:36.277Z,982.16
2022-10-30T12:29:07.980Z,982.19
2022-10-30T12:34:39.728Z,982.71
2022-10-30T12:40:11.494Z,982.48
2022-10-30T12:45:43.203Z,982.33
2022-10-30T12:51:23.108Z,982.59
2022-10-30T12:56:46.646Z,982.05
2022-10-30T13:02:18.819Z,981.76
2022-10-30T13:07:50.051Z,982.04
2022-10-30T13:13:26.183Z,982.11
2022-10-30T13:18:57.821Z,981.84
2022-10-30T13:24:29.521Z,981.59
2022-10-30T13:30:01.490Z,981.41
2022-10-30T13:35:33.127Z,981.11
2022-10-30T13:41:04.738Z,980.96
2022-10-30T13:46:36.574Z,980.97
2022-10-30T13:52:08.231Z,980.79
2022-10-30T13:57:40.025Z,980.49
2022-10-30T14:03:11.660Z,980.72
2022-10-30T14:08:43.347Z,980.82
2022-10-30T14:14:19.542Z,980.58
2022-10-30T14:19:51.294Z,980.5
2022-10-30T14:25:23.071Z,980.43
2022-10-30T14:30:54.799Z,980.33
2022-10-30T14:36:26.391Z,980.12
2022-10-30T14:41:58.184Z,980.01
2022-10-30T14:47:29.882Z,979.91
2022-10-30T14:53:02.688Z,979.89
2022-10-30T14:58:33.339Z,979.77
2022-10-30T15:04:05.131Z,979.77
2022-10-30T15:09:36.783Z,979.83
2022-10-30T15:15:14.871Z,979.79
2022-10-30T15:20:46.628Z,979.61
2022-10-30T15:26:18.575Z,979.55
2022-10-30T15:31:50.267Z,979.43
2022-10-30T15:37:21.935Z,979.49
2022-10-30T15:42:53.740Z,979.43
2022-10-30T15:48:25.390Z,979.3
2022-10-30T15:53:57.191Z,979.35
2022-10-30T15:59:28.950Z,979.1
2022-10-30T16:05:00.847Z,978.99
2022-10-30T16:10:32.201Z,978.94
2022-10-30T16:16:08.583Z,978.96
2022-10-30T16:21:40.450Z,978.83
2022-10-30T16:27:12.082Z,978.84
2022-10-30T16:32:43.708Z,978.91
2022-10-30T16:38:15.561Z,978.83
2022-10-30T16:43:47.103Z,978.9
2022-10-30T16:49:18.822Z,979.05
2022-10-30T16:54:50.727Z,979.0
2022-10-30T17:00:32.860Z,978.89
2022-10-30T17:05:54.028Z,978.89
2022-10-30T17:11:25.771Z,978.95
2022-10-30T17:17:01.844Z,978.97
2022-10-30T17:22:33.617Z,979.15
2022-10-30T17:28:05.267Z,979.05
2022-10-30T17:33:37.091Z,979.13
2022-10-30T17:39:08.755Z,979.21
2022-10-30T17:44:40.621Z,979.38
2022-10-30T17:50:12.356Z,979.32
2022-10-30T17:55:44.011Z,978.3
2022-10-30T18:01:16.039Z,979.02
2022-10-30T18:06:47.511Z,978.99
2022-10-30T18:12:20.059Z,979.03
2022-10-30T18:17:56.225Z,979.23
2022-10-30T18:23:53.989Z,979.26
2022-10-30T18:28:59.635Z,979.54
2022-10-30T18:34:31.271Z,979.61
2022-10-30T18:40:03.147Z,979.81
2022-10-30T18:45:34.830Z,979.85
2022-10-30T18:51:06.586Z,979.68
2022-10-30T18:56:38.391Z,979.73
2022-10-30T19:02:10.520Z,979.86
2022-10-30T19:07:41.775Z,980.0
2022-10-30T19:13:14.531Z,979.9
2022-10-30T19:18:51.626Z,980.09
2022-10-30T19:24:23.379Z,980.2
2022-10-30T19:29:55.119Z,980.34
2022-10-30T19:35:26.820Z,980.54
2022-10-30T19:40:58.574Z,980.5
2022-10-30T19:46:30.170Z,980.55
2022-10-30T19:52:01.886Z,980.61
2022-10-30T19:57:33.714Z,980.59
2022-10-30T20:03:05.479Z,980.33
2022-10-30T20:08:37.138Z,979.97
2022-10-30T20:14:08.899Z,980.29
2022-10-30T20:19:44.994Z,980.35
2022-10-30T20:25:16.772Z,980.48
2022-10-30T20:30:48.483Z,980.21
2022-10-30T20:36:20.318Z,980.16
2022-10-30T20:41:52.075Z,980.38
2022-10-30T20:47:23.727Z,980.2
2022-10-30T20:52:55.518Z,980.36
2022-10-30T20:58:27.204Z,980.57
2022-10-30T21:04:02.517Z,980.61
2022-10-30T21:09:30.665Z,980.62
2022-10-30T21:15:02.409Z,980.77
2022-10-30T21:20:40.550Z,980.79
2022-10-30T21:26:12.184Z,981.0
2022-10-30T21:31:44.247Z,981.12
2022-10-30T21:37:15.695Z,981.05
2022-10-30T21:42:47.499Z,981.21
2022-10-30T21:48:19.153Z,981.18
2022-10-30T21:53:50.886Z,981.08
2022-10-30T21:59:22.643Z,981.15
2022-10-30T22:04:54.374Z,981.05
2022-10-30T22:10:26.099Z,981.07
2022-10-30T22:15:58.069Z,980.83
2022-10-30T22:21:33.933Z,980.88
2022-10-30T22:27:05.638Z,980.75
2022-10-30T22:32:37.339Z,980.64
2022-10-30T22:38:09.250Z,980.55
2022-10-30T22:43:40.831Z,980.67
2022-10-30T22:49:12.591Z,980.74
2022-10-30T22:54:44.265Z,980.73
2022-10-30T23:00:20.055Z,980.87
2022-10-30T23:05:47.736Z,980.83
2022-10-30T23:11:19.572Z,980.9
2022-10-30T23:16:51.287Z,980.95
2022-10-30T23:22:29.267Z,981.21
2022-10-30T23:28:01.911Z,981.2
2022-10-30T23:33:32.741Z,980.96
2022-10-30T23:39:04.478Z,980.78
2022-10-30T23:44:36.197Z,980.96
2022-10-30T23:50:07.962Z,980.99
2022-10-30T23:55:39.748Z,981.06
